Time,TemperatureF,DewpointF,PressureIn,WindDirection,WindDirectionDegrees,WindSpeedMPH,WindSpeedGustMPH,Humidity,HourlyPrecipIn,Conditions,Clouds,dailyrainin,SoftwareType,DateUTC
2013-04-25 00:02:00,23.0,4.9,29.89,ESE,112,0.0,-999.0,45,-99.99,,,0.00,Acu-Link.com,2013-04-25 06:02:00,
2013-04-25 00:17:00,23.0,4.4,29.89,ENE,67,0.0,-999.0,44,-99.99,,,0.00,Acu-Link.com,2013-04-25 06:17:00,
2013-04-25 00:33:00,22.5,4.4,29.89,South,180,0.0,-999.0,45,-99.99,,,0.00,Acu-Link.com,2013-04-25 06:33:00,
2013-04-25 00:48:00,23.2,4.6,29.88,SSE,157,0.0,-999.0,44,-99.99,,,0.00,Acu-Link.com,2013-04-25 06:48:00,
2013-04-25 01:04:00,22.6,4.5,29.88,ENE,67,0.0,-999.0,45,-99.99,,,0.00,Acu-Link.com,2013-04-25 07:04:00,
2013-04-25 01:19:00,21.9,4.3,29.88,NE,45,1.1,-999.0,46,-99.99,,,0.00,Acu-Link.com,2013-04-25 07:19:00,
2013-04-25 01:35:00,21.7,5.5,29.88,NNW,337,0.0,-999.0,49,-99.99,,,0.00,Acu-Link.com,2013-04-25 07:35:00,
2013-04-25 01:50:00,21.6,5.0,29.87,WSW,247,0.0,-999.0,48,-99.99,,,0.00,Acu-Link.com,2013-04-25 07:50:00,
2013-04-25 02:05:00,21.7,5.1,29.87,WSW,247,0.0,-999.0,48,-99.99,,,0.00,Acu-Link.com,2013-04-25 08:05:00,
2013-04-25 02:20:00,21.7,5.1,29.87,WNW,292,0.0,-999.0,48,-99.99,,,0.00,Acu-Link.com,2013-04-25 08:20:00,
2013-04-25 02:35:00,23.0,4.9,29.85,West,270,0.0,-999.0,45,-99.99,,,0.00,Acu-Link.com,2013-04-25 08:35:00,
2013-04-25 02:50:00,22.6,4.0,29.85,WNW,292,0.0,-999.0,44,-99.99,,,0.00,Acu-Link.com,2013-04-25 08:50:00,
2013-04-25 03:06:00,21.9,3.4,29.85,SW,225,0.0,-999.0,44,-99.99,,,0.00,Acu-Link.com,2013-04-25 09:06:00,
2013-04-25 03:21:00,21.7,3.7,29.85,NW,315,0.0,-999.0,45,-99.99,,,0.00,Acu-Link.com,2013-04-25 09:21:00,
2013-04-25 03:36:00,22.8,4.2,29.85,SW,225,0.0,-999.0,44,-99.99,,,0.00,Acu-Link.com,2013-04-25 09:36:00,
2013-04-25 03:52:00,21.2,4.6,29.85,West,270,0.0,-999.0,48,-99.99,,,0.00,Acu-Link.com,2013-04-25 09:52:00,
2013-04-25 04:07:00,21.2,3.2,29.84,WSW,247,0.0,-999.0,45,-99.99,,,0.00,Acu-Link.com,2013-04-25 10:07:00,
2013-04-25 04:22:00,21.4,3.4,29.84,SW,225,0.0,-999.0,45,-99.99,,,0.00,Acu-Link.com,2013-04-25 10:22:00,
2013-04-25 04:38:00,21.6,4.5,29.82,SW,225,0.0,-999.0,47,-99.99,,,0.00,Acu-Link.com,2013-04-25 10:38:00,
2013-04-25 04:53:00,21.4,3.9,29.83,WSW,247,0.0,-999.0,46,-99.99,,,0.00,Acu-Link.com,2013-04-25 10:53:00,
2013-04-25 05:08:00,22.1,2.6,29.82,WNW,292,0.0,-999.0,42,-99.99,,,0.00,Acu-Link.com,2013-04-25 11:08:00,
2013-04-25 05:23:00,22.8,2.1,29.82,West,270,0.0,-999.0,40,-99.99,,,0.00,Acu-Link.com,2013-04-25 11:23:00,
2013-04-25 05:39:00,22.6,3.5,29.82,West,270,0.0,-999.0,43,-99.99,,,0.00,Acu-Link.com,2013-04-25 11:39:00,
2013-04-25 05:54:00,23.5,3.3,29.82,WSW,247,0.0,-999.0,41,-99.99,,,0.00,Acu-Link.com,2013-04-25 11:54:00,
2013-04-25 06:09:00,22.6,2.0,29.82,SSW,202,0.0,-999.0,40,-99.99,,,0.00,Acu-Link.com,2013-04-25 12:09:00,
2013-04-25 06:25:00,21.6,2.6,29.82,ESE,112,0.0,-999.0,43,-99.99,,,0.00,Acu-Link.com,2013-04-25 12:25:00,
2013-04-25 06:40:00,23.9,3.1,29.81,South,180,0.0,-999.0,40,-99.99,,,0.00,Acu-Link.com,2013-04-25 12:40:00,
2013-04-25 06:55:00,26.8,4.6,29.81,North,0,0.0,-999.0,38,-99.99,,,0.00,Acu-Link.com,2013-04-25 12:55:00,
2013-04-25 07:11:00,30.0,6.3,29.81,NW,315,0.0,-999.0,36,-99.99,,,0.00,Acu-Link.com,2013-04-25 13:11:00,
2013-04-25 07:26:00,36.1,7.7,29.83,West,270,0.0,-999.0,30,-99.99,,,0.00,Acu-Link.com,2013-04-25 13:26:00,
2013-04-25 07:41:00,42.6,8.4,29.82,ENE,67,0.0,-999.0,24,-99.99,,,0.00,Acu-Link.com,2013-04-25 13:41:00,
2013-04-25 07:56:00,46.4,-0.2,29.81,SE,135,0.0,-999.0,14,-99.99,,,0.00,Acu-Link.com,2013-04-25 13:56:00,
2013-04-25 08:12:00,46.9,-1.3,29.81,SSE,157,0.0,-999.0,13,-99.99,,,0.00,Acu-Link.com,2013-04-25 14:12:00,
2013-04-25 08:27:00,50.9,-3.7,29.81,ESE,112,0.0,-999.0,10,-99.99,,,0.00,Acu-Link.com,2013-04-25 14:27:00,
2013-04-25 08:42:00,50.7,-1.9,29.80,SSW,202,0.0,-999.0,11,-99.99,,,0.00,Acu-Link.com,2013-04-25 14:42:00,
2013-04-25 08:57:00,48.4,1.4,29.80,ESE,112,1.7,-999.0,14,-99.99,,,0.00,Acu-Link.com,2013-04-25 14:57:00,
2013-04-25 09:13:00,46.2,1.1,29.80,SSW,202,0.0,-999.0,15,-99.99,,,0.00,Acu-Link.com,2013-04-25 15:13:00,
2013-04-25 09:28:00,46.9,-3.0,29.80,West,270,0.0,-999.0,12,-99.99,,,0.00,Acu-Link.com,2013-04-25 15:28:00,
2013-04-25 09:43:00,47.3,-1.0,29.80,NW,315,3.2,-999.0,13,-99.99,,,0.00,Acu-Link.com,2013-04-25 15:43:00,
2013-04-25 09:59:00,50.0,-6.6,29.81,NE,45,1.1,-999.0,9,-99.99,,,0.00,Acu-Link.com,2013-04-25 15:59:00,
2013-04-25 10:14:00,50.5,-2.0,29.80,NNE,22,0.0,-999.0,11,-99.99,,,0.00,Acu-Link.com,2013-04-25 16:14:00,
2013-04-25 10:29:00,50.9,-1.7,29.80,SW,225,0.0,-999.0,11,-99.99,,,0.00,Acu-Link.com,2013-04-25 16:29:00,
2013-04-25 10:44:00,51.8,-5.2,29.80,NW,315,0.0,-999.0,9,-99.99,,,0.00,Acu-Link.com,2013-04-25 16:44:00,
2013-04-25 10:59:00,52.3,-4.8,29.79,West,270,1.7,-999.0,9,-99.99,,,0.00,Acu-Link.com,2013-04-25 16:59:00,
2013-04-25 11:15:00,52.5,-2.5,29.80,North,0,0.0,-999.0,10,-99.99,,,0.00,Acu-Link.com,2013-04-25 17:15:00,
2013-04-25 11:30:00,53.1,-2.0,29.79,WSW,247,1.1,-999.0,10,-99.99,,,0.00,Acu-Link.com,2013-04-25 17:30:00,
2013-04-25 11:45:00,52.2,1.2,29.78,SSE,157,0.0,-999.0,12,-99.99,,,0.00,Acu-Link.com,2013-04-25 17:45:00,
2013-04-25 12:01:00,55.0,-2.8,29.78,WNW,292,0.0,-999.0,9,-99.99,,,0.00,Acu-Link.com,2013-04-25 18:01:00,
2013-04-25 12:17:00,53.8,4.1,29.78,SSE,157,1.1,-999.0,13,-99.99,,,0.00,Acu-Link.com,2013-04-25 18:17:00,
2013-04-25 12:32:00,55.2,3.5,29.77,WSW,247,0.0,-999.0,12,-99.99,,,0.00,Acu-Link.com,2013-04-25 18:32:00,
2013-04-25 12:48:00,55.0,-0.5,29.76,NW,315,0.0,-999.0,10,-99.99,,,0.00,Acu-Link.com,2013-04-25 18:48:00,
2013-04-25 13:03:00,55.4,1.8,29.75,WNW,292,3.2,-999.0,11,-99.99,,,0.00,Acu-Link.com,2013-04-25 19:03:00,
2013-04-25 13:18:00,55.0,-0.5,29.75,WNW,292,1.1,-999.0,10,-99.99,,,0.00,Acu-Link.com,2013-04-25 19:18:00,
2013-04-25 13:34:00,53.8,2.4,29.75,NNW,337,1.7,-999.0,12,-99.99,,,0.00,Acu-Link.com,2013-04-25 19:34:00,
2013-04-25 13:49:00,57.2,1.2,29.75,NNE,22,0.0,-999.0,10,-99.99,,,0.00,Acu-Link.com,2013-04-25 19:49:00,
2013-04-25 14:04:00,55.9,2.2,29.74,West,270,1.1,-999.0,11,-99.99,,,0.00,Acu-Link.com,2013-04-25 20:04:00,
2013-04-25 14:19:00,56.1,0.3,29.73,SW,225,3.2,-999.0,10,-99.99,,,0.00,Acu-Link.com,2013-04-25 20:19:00,
2013-04-25 14:35:00,57.6,1.5,29.74,WNW,292,1.1,-999.0,10,-99.99,,,0.00,Acu-Link.com,2013-04-25 20:35:00,
2013-04-25 14:50:00,57.2,3.2,29.73,NE,45,1.1,-999.0,11,-99.99,,,0.00,Acu-Link.com,2013-04-25 20:50:00,
2013-04-25 15:05:00,57.0,4.9,29.73,NW,315,1.7,-999.0,12,-99.99,,,0.00,Acu-Link.com,2013-04-25 21:05:00,
2013-04-25 15:20:00,57.2,-1.1,29.72,NNW,337,0.0,-999.0,9,-99.99,,,0.00,Acu-Link.com,2013-04-25 21:20:00,
2013-04-25 15:35:00,55.8,2.1,29.71,SW,225,0.0,-999.0,11,-99.99,,,0.00,Acu-Link.com,2013-04-25 21:35:00,
2013-04-25 15:51:00,56.1,2.3,29.71,NNW,337,1.1,-999.0,11,-99.99,,,0.00,Acu-Link.com,2013-04-25 21:51:00,
2013-04-25 16:06:00,55.6,2.0,29.70,WNW,292,0.0,-999.0,11,-99.99,,,0.00,Acu-Link.com,2013-04-25 22:06:00,
2013-04-25 16:21:00,54.3,9.1,29.70,WSW,247,0.0,-999.0,16,-99.99,,,0.00,Acu-Link.com,2013-04-25 22:21:00,
2013-04-25 16:37:00,54.3,7.7,29.70,WNW,292,0.0,-999.0,15,-99.99,,,0.00,Acu-Link.com,2013-04-25 22:37:00,
2013-04-25 16:52:00,53.2,5.3,29.70,SW,225,0.0,-999.0,14,-99.99,,,0.00,Acu-Link.com,2013-04-25 22:52:00,
2013-04-25 17:08:00,51.4,8.1,29.71,ESE,112,0.0,-999.0,17,-99.99,,,0.00,Acu-Link.com,2013-04-25 23:08:00,
2013-04-25 17:23:00,51.8,10.9,29.70,East,90,2.7,-999.0,19,-99.99,,,0.00,Acu-Link.com,2013-04-25 23:23:00,
2013-04-25 17:38:00,48.7,13.5,29.72,ENE,67,1.1,-999.0,24,-99.99,,,0.00,Acu-Link.com,2013-04-25 23:38:00,
2013-04-25 17:53:00,48.6,12.5,29.72,East,90,0.0,-999.0,23,-99.99,,,0.00,Acu-Link.com,2013-04-25 23:53:00,
2013-04-25 18:08:00,48.2,13.1,29.72,ENE,67,1.1,-999.0,24,-99.99,,,0.00,Acu-Link.com,2013-04-26 00:08:00,
2013-04-25 18:24:00,48.0,13.9,29.73,NE,45,1.1,-999.0,25,-99.99,,,0.00,Acu-Link.com,2013-04-26 00:24:00,
2013-04-25 18:39:00,45.7,13.7,29.73,ESE,112,0.0,-999.0,27,-99.99,,,0.00,Acu-Link.com,2013-04-26 00:39:00,
2013-04-25 18:54:00,44.1,14.7,29.74,WNW,292,0.0,-999.0,30,-99.99,,,0.00,Acu-Link.com,2013-04-26 00:54:00,
2013-04-25 19:09:00,42.1,13.7,29.74,West,270,0.0,-999.0,31,-99.99,,,0.00,Acu-Link.com,2013-04-26 01:09:00,
2013-04-25 19:25:00,40.1,15.3,29.73,West,270,0.0,-999.0,36,-99.99,,,0.00,Acu-Link.com,2013-04-26 01:25:00,
2013-04-25 19:40:00,38.3,17.2,29.74,West,270,0.0,-999.0,42,-99.99,,,0.00,Acu-Link.com,2013-04-26 01:40:00,
2013-04-25 19:55:00,36.9,19.1,29.74,WNW,292,0.0,-999.0,48,-99.99,,,0.00,Acu-Link.com,2013-04-26 01:55:00,
2013-04-25 20:11:00,35.6,17.4,29.76,WNW,292,0.0,-999.0,47,-99.99,,,0.00,Acu-Link.com,2013-04-26 02:11:00,
2013-04-25 20:26:00,33.6,16.0,29.76,West,270,0.0,-999.0,48,-99.99,,,0.00,Acu-Link.com,2013-04-26 02:26:00,
2013-04-25 20:41:00,32.4,16.8,29.78,WSW,247,0.0,-999.0,52,-99.99,,,0.00,Acu-Link.com,2013-04-26 02:41:00,
2013-04-25 20:56:00,31.3,17.4,29.77,ENE,67,0.0,-999.0,56,-99.99,,,0.00,Acu-Link.com,2013-04-26 02:56:00,
2013-04-25 21:12:00,30.2,16.4,29.78,West,270,0.0,-999.0,56,-99.99,,,0.00,Acu-Link.com,2013-04-26 03:12:00,
2013-04-25 21:27:00,29.7,17.5,29.79,West,270,0.0,-999.0,60,-99.99,,,0.00,Acu-Link.com,2013-04-26 03:27:00,
2013-04-25 21:42:00,29.1,17.4,29.79,West,270,0.0,-999.0,61,-99.99,,,0.00,Acu-Link.com,2013-04-26 03:42:00,
2013-04-25 21:58:00,28.2,17.2,29.80,West,270,0.0,-999.0,63,-99.99,,,0.00,Acu-Link.com,2013-04-26 03:58:00,
2013-04-25 22:13:00,27.7,17.8,29.81,SW,225,0.0,-999.0,66,-99.99,,,0.00,Acu-Link.com,2013-04-26 04:13:00,
2013-04-25 22:28:00,28.2,18.0,29.82,ESE,112,0.0,-999.0,65,-99.99,,,0.00,Acu-Link.com,2013-04-26 04:28:00,
2013-04-25 22:44:00,28.2,17.6,29.82,SW,225,0.0,-999.0,64,-99.99,,,0.00,Acu-Link.com,2013-04-26 04:44:00,
2013-04-25 22:59:00,27.9,17.3,29.82,WSW,247,0.0,-999.0,64,-99.99,,,0.00,Acu-Link.com,2013-04-26 04:59:00,
2013-04-25 23:14:00,28.2,18.0,29.82,West,270,0.0,-999.0,65,-99.99,,,0.00,Acu-Link.com,2013-04-26 05:14:00,
2013-04-25 23:29:00,27.7,17.1,29.82,SW,225,0.0,-999.0,64,-99.99,,,0.00,Acu-Link.com,2013-04-26 05:29:00,
2013-04-25 23:45:00,26.6,16.4,29.83,SW,225,0.0,-999.0,65,-99.99,,,0.00,Acu-Link.com,2013-04-26 05:45:00,